Time;durP1;ratioP1;P1;durP2;ratioP2;P2;SDS_P1;SDS_P2;PMS_P1;PMS_P2;Temp;Humidity;BMP_temperature;BMP_pressure;BME280_temperature;BME280_humidity;BME280_pressure;Samples;Min_cycle;Max_cycle;Signal;HPM_P1;HPM_P2
2022/10/19 00:00:27;;;;;;;10.80;8.25;;;;;;;11.59;83.22;101618.30;1663094;85;21107;-77
2022/10/19 00:03:12;;;;;;;16.70;9.03;;;;;;;11.59;83.24;101612.26;1655974;85;21098;-77
2022/10/19 00:05:57;;;;;;;15.32;10.38;;;;;;;11.60;83.26;101612.69;1668495;85;21051;-77
2022/10/19 00:08:43;;;;;;;13.30;8.48;;;;;;;11.59;83.26;101613.55;1669545;84;21052;-77
2022/10/19 00:11:29;;;;;;;16.30;8.58;;;;;;;11.60;83.28;101618.73;1667079;84;28198;-77
2022/10/19 00:14:22;;;;;;;17.30;7.97;;;;;;;11.61;83.28;101615.27;1657346;83;21074;-77
2022/10/19 00:17:07;;;;;;;11.33;8.45;;;;;;;11.63;83.31;101620.45;1673488;85;21135;-77
2022/10/19 00:19:52;;;;;;;16.75;8.30;;;;;;;11.64;83.30;101614.39;1663168;84;21504;-77
2022/10/19 00:22:37;;;;;;;12.98;8.33;;;;;;;11.64;83.29;101612.23;1655505;85;21415;-77
2022/10/19 00:25:22;;;;;;;12.90;8.15;;;;;;;11.63;83.28;101613.97;1645035;85;21157;-76
2022/10/19 00:28:08;;;;;;;13.15;7.87;;;;;;;11.63;83.26;101614.41;1644561;85;21064;-76
2022/10/19 00:30:53;;;;;;;18.98;8.13;;;;;;;11.63;83.32;101619.16;1648288;85;21384;-76
2022/10/19 00:33:38;;;;;;;13.58;7.58;;;;;;;11.64;83.26;101615.70;1645116;85;21045;-76
2022/10/19 00:36:33;;;;;;;12.85;7.12;;;;;;;11.64;83.30;101612.23;1645276;85;21116;-76
2022/10/19 00:39:18;;;;;;;9.95;6.62;;;;;;;11.61;83.27;101609.23;1639817;86;20971;-76
2022/10/19 00:42:03;;;;;;;11.08;6.50;;;;;;;11.58;83.26;101606.22;1643455;85;21650;-76
2022/10/19 00:44:53;;;;;;;9.23;5.42;;;;;;;11.56;83.24;101605.80;1649631;85;20989;-76
2022/10/19 00:47:40;;;;;;;11.60;6.20;;;;;;;11.51;83.23;101597.18;1638983;86;21096;-76
2022/10/19 00:50:25;;;;;;;14.23;6.50;;;;;;;11.51;83.30;101598.48;1641597;86;20945;-76
2022/10/19 00:53:10;;;;;;;13.93;6.22;;;;;;;11.50;83.31;101592.44;1644080;86;20941;-76
2022/10/19 00:55:58;;;;;;;10.05;6.42;;;;;;;11.52;83.33;101594.59;1650930;85;20914;-76
2022/10/19 00:58:44;;;;;;;13.20;6.50;;;;;;;11.54;83.30;101593.28;1643925;84;21000;-76
2022/10/19 01:01:30;;;;;;;11.78;6.40;;;;;;;11.56;83.35;101598.89;1641277;85;21434;-76
2022/10/19 01:04:16;;;;;;;15.85;6.58;;;;;;;11.56;83.31;101603.20;1651561;86;21525;-76
2022/10/19 01:07:03;;;;;;;8.95;5.85;;;;;;;11.57;83.31;101596.72;1620958;86;20965;-77
2022/10/19 01:09:48;;;;;;;7.42;5.72;;;;;;;11.58;83.31;101602.33;1647331;85;20978;-77
2022/10/19 01:12:57;;;;;;;10.20;5.92;;;;;;;11.58;83.30;101598.88;1642121;86;20942;-77
2022/10/19 01:16:09;;;;;;;13.83;5.65;;;;;;;11.58;83.31;101597.15;1639379;85;20962;-77
2022/10/19 01:19:04;;;;;;;15.08;6.15;;;;;;;11.57;83.27;101604.93;1645527;86;20961;-77
2022/10/19 01:22:22;;;;;;;9.90;6.00;;;;;;;11.55;83.31;101611.41;1638481;85;27974;-76
2022/10/19 01:25:22;;;;;;;12.90;6.20;;;;;;;11.54;83.32;101601.91;1656442;85;20996;-76
2022/10/19 01:28:41;;;;;;;8.28;5.67;;;;;;;11.52;83.30;101602.79;1663558;85;21403;-76
2022/10/19 01:31:43;;;;;;;11.35;4.92;;;;;;;11.52;83.31;101597.17;1651158;85;20939;-76
2022/10/19 01:35:03;;;;;;;10.60;4.72;;;;;;;11.51;83.33;101599.34;1662093;85;20940;-76
2022/10/19 01:37:59;;;;;;;6.65;5.50;;;;;;;11.51;83.29;101603.66;1662646;85;21393;-76
2022/10/19 01:41:20;;;;;;;11.95;5.28;;;;;;;11.49;83.31;101598.91;1653806;85;21446;-76
2022/10/19 01:44:20;;;;;;;14.78;5.42;;;;;;;11.49;83.32;101596.33;1663563;85;20944;-76
2022/10/19 01:47:09;;;;;;;11.80;5.10;;;;;;;11.48;83.30;101595.47;1652193;85;20928;-76
2022/10/19 01:50:18;;;;;;;9.25;4.72;;;;;;;11.46;83.36;101593.31;1668691;82;20961;-76
2022/10/19 01:53:05;;;;;;;8.93;4.50;;;;;;;11.48;83.38;101584.25;1660725;84;20965;-76
2022/10/19 01:55:53;;;;;;;10.63;4.85;;;;;;;11.48;83.37;101579.06;1666582;85;20968;-76
2022/10/19 01:58:40;;;;;;;10.38;4.45;;;;;;;11.47;83.31;101576.05;1654248;85;21418;-76
2022/10/19 02:01:29;;;;;;;9.05;4.25;;;;;;;11.45;83.34;101576.48;1652545;83;20961;-76
2022/10/19 02:04:18;;;;;;;9.58;4.60;;;;;;;11.45;83.38;101575.19;1665317;84;20960;-77
2022/10/19 02:07:05;;;;;;;6.47;4.25;;;;;;;11.45;83.40;101569.58;1540286;83;9999927;-77
2022/10/19 02:09:50;;;;;;;13.48;4.75;;;;;;;11.46;83.35;101575.62;1663985;84;20961;-77
2022/10/19 02:12:36;;;;;;;10.55;3.90;;;;;;;11.45;83.34;101576.05;1659752;84;20937;-77
2022/10/19 02:15:24;;;;;;;9.85;3.98;;;;;;;11.43;83.33;101574.37;1659637;85;20933;-77
2022/10/19 02:18:12;;;;;;;13.13;4.35;;;;;;;11.43;83.31;101571.34;1642288;85;21017;-77
2022/10/19 02:20:57;;;;;;;8.43;4.03;;;;;;;11.44;83.37;101566.99;1665155;85;20920;-77
2022/10/19 02:23:42;;;;;;;12.28;4.60;;;;;;;11.44;83.37;101576.06;1656673;85;21378;-77
2022/10/19 02:26:27;;;;;;;8.83;3.55;;;;;;;11.43;83.33;101572.64;1665891;84;21385;-76
2022/10/19 02:29:14;;;;;;;11.45;4.00;;;;;;;11.43;83.36;101574.37;1675501;84;21676;-76
2022/10/19 02:32:00;;;;;;;5.50;3.62;;;;;;;11.42;83.33;101577.83;1660796;82;20963;-76
2022/10/19 02:34:45;;;;;;;8.93;3.70;;;;;;;11.40;83.31;101568.77;1674577;83;21434;-76
2022/10/19 02:37:30;;;;;;;9.20;3.72;;;;;;;11.40;83.37;101566.61;1668132;85;21408;-76
2022/10/19 02:40:15;;;;;;;11.10;4.15;;;;;;;11.41;83.36;101577.40;1673750;84;20913;-76
2022/10/19 02:43:04;;;;;;;7.97;3.67;;;;;;;11.41;83.38;101576.11;1666268;84;20963;-76
2022/10/19 02:45:58;;;;;;;9.33;3.40;;;;;;;11.39;83.31;101574.81;1674861;85;21398;-76
2022/10/19 02:48:43;;;;;;;10.70;3.42;;;;;;;11.37;83.37;101573.96;1674278;85;21547;-76
2022/10/19 02:51:37;;;;;;;8.13;3.45;;;;;;;11.37;83.35;101570.08;1674373;83;21412;-76
2022/10/19 02:54:23;;;;;;;10.88;3.58;;;;;;;11.39;83.40;101572.66;1670618;85;21419;-76
2022/10/19 02:57:22;;;;;;;6.25;3.45;;;;;;;11.37;83.35;101571.37;1664217;84;20923;-76
2022/10/19 03:00:09;;;;;;;9.23;3.98;;;;;;;11.38;83.38;101573.52;1628255;85;20961;-76
2022/10/19 03:02:53;;;;;;;10.78;3.35;;;;;;;11.37;83.35;101571.37;1635141;87;21092;-76
2022/10/19 03:05:39;;;;;;;7.87;3.17;;;;;;;11.36;83.35;101567.48;1660309;85;21121;-76
2022/10/19 03:08:24;;;;;;;12.68;3.35;;;;;;;11.37;83.34;101569.21;1660295;84;22174;-76
2022/10/19 03:11:09;;;;;;;6.97;2.72;;;;;;;11.35;83.37;101572.24;1666378;85;21535;-76
2022/10/19 03:13:54;;;;;;;7.10;3.33;;;;;;;11.34;83.32;101567.93;1662246;85;21106;-76
2022/10/19 03:16:39;;;;;;;9.55;3.00;;;;;;;11.31;83.33;101566.21;1652799;84;21016;-76
2022/10/19 03:19:25;;;;;;;6.60;2.83;;;;;;;11.30;83.35;101567.52;1659576;85;21641;-76
2022/10/19 03:22:10;;;;;;;12.60;2.80;;;;;;;11.29;83.36;101573.13;1665947;84;21066;-76
2022/10/19 03:24:55;;;;;;;13.65;2.87;;;;;;;11.27;83.38;101570.55;1668720;84;21086;-76
2022/10/19 03:27:40;;;;;;;6.47;2.72;;;;;;;11.28;83.40;101569.67;1659898;85;21659;-76
2022/10/19 03:30:25;;;;;;;10.20;3.05;;;;;;;11.30;83.36;101577.88;1652292;85;21112;-77
2022/10/19 03:33:10;;;;;;;9.93;2.72;;;;;;;11.27;83.34;101567.09;1670084;83;21655;-77
2022/10/19 03:36:29;;;;;;;4.72;2.42;;;;;;;11.24;83.30;101569.25;1669793;85;21052;-77
2022/10/19 03:39:16;;;;;;;7.30;2.50;;;;;;;11.22;83.30;101568.41;1669336;85;21064;-77
2022/10/19 03:42:01;;;;;;;7.10;2.60;;;;;;;11.20;83.34;101563.66;1664909;85;21014;-77
2022/10/19 03:44:46;;;;;;;9.73;2.67;;;;;;;11.19;83.32;101568.41;1656241;84;21107;-77
2022/10/19 03:47:31;;;;;;;6.90;2.70;;;;;;;11.19;83.38;101568.84;1668606;85;21101;-77
2022/10/19 03:50:16;;;;;;;8.63;2.22;;;;;;;11.18;83.31;101560.65;1658160;83;21524;-77
2022/10/19 03:53:01;;;;;;;11.55;2.22;;;;;;;11.18;83.35;101552.88;1658266;83;21086;-77
2022/10/19 03:55:46;;;;;;;5.70;2.33;;;;;;;11.16;83.36;101552.02;1676300;84;20985;-77
2022/10/19 03:58:35;;;;;;;4.87;2.20;;;;;;;11.17;83.32;101546.84;1677414;84;21003;-77
2022/10/19 04:01:25;;;;;;;4.25;2.15;;;;;;;11.15;83.30;101548.58;1655562;84;21602;-77
2022/10/19 04:04:13;;;;;;;9.90;2.40;;;;;;;11.14;83.33;101550.73;1663784;85;21073;-77
2022/10/19 04:06:58;;;;;;;7.70;2.15;;;;;;;11.14;83.33;101552.03;1661358;84;21502;-77
2022/10/19 04:09:43;;;;;;;8.53;1.95;;;;;;;11.13;83.32;101554.19;1669374;84;21052;-77
2022/10/19 04:12:28;;;;;;;9.08;2.40;;;;;;;11.11;83.25;101559.80;1671436;84;21096;-80
2022/10/19 04:15:14;;;;;;;9.48;2.55;;;;;;;11.11;83.31;101561.53;1653636;84;21110;-80
2022/10/19 04:17:59;;;;;;;8.93;2.42;;;;;;;11.10;83.30;101572.75;1663609;85;21094;-80
2022/10/19 04:20:44;;;;;;;9.20;2.33;;;;;;;11.09;83.34;101582.24;1672171;84;21060;-79
2022/10/19 04:23:32;;;;;;;8.30;2.50;;;;;;;11.11;83.36;101575.34;1677591;84;21157;-80
2022/10/19 04:26:18;;;;;;;5.00;2.02;;;;;;;11.11;83.31;101576.63;1681624;84;20947;-79
2022/10/19 04:29:03;;;;;;;6.85;2.15;;;;;;;11.12;83.29;101585.26;1675284;84;21041;-80
2022/10/19 04:31:50;;;;;;;8.53;2.03;;;;;;;11.08;83.21;101576.64;1670285;84;20984;-80
2022/10/19 04:34:35;;;;;;;2.83;1.50;;;;;;;11.07;83.28;101577.50;1674235;84;21079;-80
2022/10/19 04:37:20;;;;;;;9.63;2.77;;;;;;;11.08;83.34;101579.23;1649987;84;21051;-80
2022/10/19 04:40:08;;;;;;;5.85;1.70;;;;;;;11.08;83.31;101581.81;1670401;84;21527;-80
2022/10/19 04:42:53;;;;;;;5.65;1.82;;;;;;;11.06;83.30;101572.33;1668836;85;20971;-80
2022/10/19 04:45:38;;;;;;;5.45;1.60;;;;;;;11.09;83.33;101580.09;1668046;83;20945;-80
2022/10/19 04:48:23;;;;;;;2.65;1.87;;;;;;;11.11;83.29;101582.23;1675212;84;20919;-79
2022/10/19 04:51:10;;;;;;;5.33;2.00;;;;;;;11.09;83.25;101580.95;1555074;83;5001469;-80
2022/10/19 04:53:57;;;;;;;6.60;1.67;;;;;;;11.07;83.20;101585.70;1673953;83;20968;-80
2022/10/19 04:56:41;;;;;;;4.00;1.35;;;;;;;11.06;83.27;101580.09;1664754;84;21600;-80
2022/10/19 04:59:27;;;;;;;5.12;1.75;;;;;;;11.04;83.25;101580.09;1675580;82;21347;-80
2022/10/19 05:02:11;;;;;;;11.43;3.08;;;;;;;11.04;83.24;101580.09;1674994;84;20965;-80
2022/10/19 05:04:56;;;;;;;11.00;1.62;;;;;;;11.01;83.22;101580.11;1664329;84;20929;-80
2022/10/19 05:07:41;;;;;;;6.03;1.82;;;;;;;11.01;83.19;101577.95;1671702;85;21403;-80
2022/10/19 05:10:26;;;;;;;5.83;1.40;;;;;;;11.00;83.20;101580.97;1676710;83;20945;-80
2022/10/19 05:13:11;;;;;;;5.70;1.50;;;;;;;11.01;83.27;101587.01;1654046;85;20979;-80
2022/10/19 05:15:59;;;;;;;5.28;1.55;;;;;;;10.99;83.22;101580.97;1670070;85;21504;-80
2022/10/19 05:18:50;;;;;;;5.92;1.50;;;;;;;10.99;83.19;101590.03;1674032;85;20957;-80
2022/10/19 05:21:35;;;;;;;2.95;1.35;;;;;;;10.99;83.21;101584.85;1649681;85;20924;-80
2022/10/19 05:24:20;;;;;;;6.12;1.67;;;;;;;10.98;83.19;101590.46;1678322;85;21036;-80
2022/10/19 05:27:05;;;;;;;4.47;1.42;;;;;;;10.97;83.19;101593.05;1667524;84;21067;-80
2022/10/19 05:29:50;;;;;;;6.53;1.50;;;;;;;10.95;83.17;101585.30;1669962;85;21617;-80
2022/10/19 05:32:35;;;;;;;7.25;1.55;;;;;;;10.93;83.16;101590.47;1668425;83;21119;-80
2022/10/19 05:35:20;;;;;;;3.37;1.52;;;;;;;10.93;83.20;101590.47;1669684;83;21096;-80
2022/10/19 05:38:05;;;;;;;7.78;1.65;;;;;;;10.94;83.17;101587.45;1665004;84;21039;-80
2022/10/19 05:40:50;;;;;;;3.02;1.60;;;;;;;10.92;83.18;101587.45;1673534;85;21121;-80
2022/10/19 05:43:35;;;;;;;4.20;1.52;;;;;;;10.91;83.16;101590.08;1674205;84;21081;-80
2022/10/19 05:46:21;;;;;;;4.08;1.40;;;;;;;10.87;83.11;101593.53;1673262;85;21496;-80
2022/10/19 05:49:05;;;;;;;4.28;1.35;;;;;;;10.87;83.20;101597.41;1671114;85;21111;-80
2022/10/19 05:51:51;;;;;;;5.92;1.80;;;;;;;10.84;83.13;101605.18;1665704;82;21036;-80
2022/10/19 05:54:36;;;;;;;7.65;1.52;;;;;;;10.82;83.15;101606.91;1669761;85;20988;-80
2022/10/19 05:57:21;;;;;;;3.93;1.20;;;;;;;10.80;83.14;101604.75;1668183;82;20984;-80
2022/10/19 06:00:08;;;;;;;4.25;1.32;;;;;;;10.78;83.14;101613.81;1665551;84;21479;-80
2022/10/19 06:02:53;;;;;;;5.50;1.20;;;;;;;10.80;83.21;101613.81;1671658;84;21079;-80
2022/10/19 06:05:38;;;;;;;5.60;1.70;;;;;;;10.84;83.21;101614.23;1674458;85;21519;-80
2022/10/19 06:08:24;;;;;;;8.08;1.67;;;;;;;10.86;83.16;101613.80;1670569;83;21054;-80
2022/10/19 06:11:15;;;;;;;4.13;1.47;;;;;;;10.90;83.17;101616.38;1671834;85;21068;-80
2022/10/19 06:14:01;;;;;;;4.45;1.42;;;;;;;10.93;83.19;101622.81;1667328;85;21052;-80
2022/10/19 06:16:46;;;;;;;4.92;1.30;;;;;;;10.97;83.21;101621.09;1632857;87;21045;-80
2022/10/19 06:19:32;;;;;;;4.53;1.12;;;;;;;11.01;83.15;101621.94;1630926;87;21644;-80
2022/10/19 06:22:17;;;;;;;3.55;1.20;;;;;;;11.05;83.19;101625.82;1631517;85;21772;-80
2022/10/19 06:25:02;;;;;;;7.83;1.37;;;;;;;11.06;83.14;101621.50;1629839;84;21555;-79
2022/10/19 06:27:48;;;;;;;6.80;1.45;;;;;;;11.06;83.08;101624.95;1605171;88;21067;-80
2022/10/19 06:30:33;;;;;;;6.17;1.50;;;;;;;11.08;83.16;101615.46;1619903;87;21315;-80
2022/10/19 06:33:17;;;;;;;4.30;1.30;;;;;;;11.10;83.13;101621.50;1620950;87;21544;-80
2022/10/19 06:36:12;;;;;;;3.72;1.17;;;;;;;11.12;83.13;101622.36;1594095;88;21127;-80
2022/10/19 06:39:00;;;;;;;3.10;1.00;;;;;;;11.12;83.12;101627.53;1620116;87;21523;-80
2022/10/19 06:41:45;;;;;;;6.47;1.15;;;;;;;11.15;83.15;101632.70;1621583;85;21476;-80
2022/10/19 06:44:29;;;;;;;4.10;1.50;;;;;;;11.15;83.10;101631.84;1605452;88;21069;-80
2022/10/19 06:47:15;;;;;;;4.50;1.10;;;;;;;11.14;83.05;101636.59;1606049;88;21534;-80
2022/10/19 06:50:00;;;;;;;8.55;1.32;;;;;;;11.13;83.06;101638.75;1605511;88;21106;-80
2022/10/19 06:52:45;;;;;;;5.70;1.32;;;;;;;11.14;83.11;101643.06;1609846;87;21076;-80
2022/10/19 06:55:30;;;;;;;8.13;1.12;;;;;;;11.14;83.06;101637.88;1606957;88;21037;-80
2022/10/19 06:58:15;;;;;;;7.17;1.47;;;;;;;11.14;83.06;101643.92;1610508;88;21062;-80
2022/10/19 07:01:01;;;;;;;3.65;1.27;;;;;;;11.17;83.09;101643.92;1605264;88;21062;-80
2022/10/19 07:03:46;;;;;;;3.10;1.10;;;;;;;11.18;83.07;101648.66;1610095;88;21058;-80
2022/10/19 07:06:31;;;;;;;3.52;1.22;;;;;;;11.20;83.09;101650.39;1607993;88;21129;-80
2022/10/19 07:09:17;;;;;;;4.15;1.47;;;;;;;11.19;83.01;101649.09;1621926;87;20987;-80
2022/10/19 07:12:03;;;;;;;7.62;1.20;;;;;;;11.17;83.04;101651.69;1621522;87;21095;-80
2022/10/19 07:14:47;;;;;;;7.12;1.45;;;;;;;11.20;83.10;101655.56;1621438;87;21051;-80
2022/10/19 07:17:32;;;;;;;2.83;1.20;;;;;;;11.23;83.14;101661.17;1621563;87;22315;-80
2022/10/19 07:20:18;;;;;;;3.50;1.37;;;;;;;11.26;83.10;101663.31;1621305;87;21470;-80
2022/10/19 07:23:03;;;;;;;2.37;1.12;;;;;;;11.30;83.11;101661.59;1615032;87;22219;-80
2022/10/19 07:25:48;;;;;;;3.60;1.35;;;;;;;11.34;83.12;101671.51;1591608;88;21097;-80
2022/10/19 07:28:34;;;;;;;2.37;1.20;;;;;;;11.37;83.04;101672.80;1631303;85;21091;-80
2022/10/19 07:31:22;;;;;;;1.65;1.00;;;;;;;11.40;83.12;101673.66;1614563;87;21043;-80
2022/10/19 07:34:12;;;;;;;5.50;1.30;;;;;;;11.45;83.11;101680.95;1597119;87;21542;-80
2022/10/19 07:36:57;;;;;;;3.05;1.72;;;;;;;11.53;83.13;101675.31;1641754;85;21139;-80
2022/10/19 07:39:42;;;;;;;4.65;1.32;;;;;;;11.54;83.02;101682.22;1645151;85;21000;-81
2022/10/19 07:42:29;;;;;;;2.17;1.12;;;;;;;11.56;83.02;101681.78;1638156;85;21115;-81
2022/10/19 07:45:17;;;;;;;;;;;;;;;11.58;83.06;101690.84;1645982;85;21075;-80
2022/10/19 07:48:01;;;;;;;3.75;1.00;;;;;;;11.58;82.91;101682.64;1638241;85;20118;-80
2022/10/19 07:50:49;;;;;;;3.85;1.40;;;;;;;11.61;83.03;101687.81;1646181;85;20961;-80
2022/10/19 07:53:35;;;;;;;2.72;1.40;;;;;;;11.70;83.09;101687.35;1649082;85;21406;-80
2022/10/19 07:56:23;;;;;;;5.30;2.55;;;;;;;11.80;83.08;101693.83;1650107;85;20921;-80
2022/10/19 07:59:09;;;;;;;3.87;1.90;;;;;;;11.90;83.05;101696.81;1643084;86;21411;-80
2022/10/19 08:01:55;;;;;;;3.00;1.22;;;;;;;11.94;82.94;101706.73;1645617;86;22072;-80
2022/10/19 08:04:40;;;;;;;2.62;1.00;;;;;;;11.98;82.91;101705.82;1613154;87;20941;-80
2022/10/19 08:07:25;;;;;;;3.70;1.27;;;;;;;12.04;82.96;101698.45;1612652;86;21475;-80
2022/10/19 08:10:10;;;;;;;4.45;1.10;;;;;;;12.12;82.92;101696.69;1595068;87;21458;-80
2022/10/19 08:12:55;;;;;;;3.90;1.25;;;;;;;12.19;82.93;101688.01;1615015;86;21411;-80
2022/10/19 08:15:40;;;;;;;3.15;0.98;;;;;;;12.28;83.02;101699.62;1611860;86;20955;-80
2022/10/19 08:18:25;;;;;;;2.70;1.07;;;;;;;12.41;82.99;101705.17;1652114;86;20922;-80
2022/10/19 08:21:10;;;;;;;3.30;0.78;;;;;;;12.56;82.92;101697.70;1643980;86;20909;-80
2022/10/19 08:23:55;;;;;;;4.03;1.00;;;;;;;12.66;82.92;101696.76;1647311;85;21802;-80
2022/10/19 08:26:41;;;;;;;2.50;0.82;;;;;;;12.80;82.91;101704.02;1658490;85;21556;-80
2022/10/19 08:29:26;;;;;;;3.05;0.65;;;;;;;12.92;82.87;101701.75;1677087;83;21020;-80
2022/10/19 08:32:11;;;;;;;2.25;0.70;;;;;;;13.05;82.95;101699.45;1665155;84;21333;-80
2022/10/19 08:34:55;;;;;;;1.82;0.70;;;;;;;13.19;82.85;101697.63;1672787;85;21432;-80
2022/10/19 08:37:41;;;;;;;1.52;0.90;;;;;;;13.29;82.71;101698.39;1661823;85;20941;-80
2022/10/19 08:40:29;;;;;;;4.28;0.68;;;;;;;13.31;82.71;101694.48;1662162;85;20913;-80
2022/10/19 08:43:25;;;;;;;2.20;0.70;;;;;;;13.36;82.71;101699.20;1671748;85;20944;-80
2022/10/19 08:46:36;;;;;;;1.85;1.10;;;;;;;13.49;82.77;101696.90;1665405;84;20964;-80
2022/10/19 08:49:24;;;;;;;1.65;0.85;;;;;;;13.57;82.74;101698.95;1667604;85;20961;-80
2022/10/19 08:52:27;;;;;;;1.95;1.00;;;;;;;13.54;82.54;101703.73;1661971;83;20929;-80
2022/10/19 08:55:16;;;;;;;2.92;1.02;;;;;;;13.50;82.50;101696.88;1656016;84;20893;-80
2022/10/19 08:58:26;;;;;;;1.40;0.88;;;;;;;13.48;82.50;101705.58;1672208;84;21758;-80
2022/10/19 09:01:28;;;;;;;1.75;1.05;;;;;;;13.52;82.57;101704.19;1668146;84;20927;-80
2022/10/19 09:04:30;;;;;;;2.02;1.10;;;;;;;13.61;82.49;101708.88;1662934;85;20964;-80
2022/10/19 09:07:28;;;;;;;2.33;0.60;;;;;;;13.55;82.34;101709.80;1658816;83;20932;-80
2022/10/19 09:10:21;;;;;;;2.62;0.90;;;;;;;13.51;82.37;101706.40;1644191;85;20937;-80
2022/10/19 09:13:20;;;;;;;2.52;0.80;;;;;;;13.46;82.32;101702.98;1680925;84;20928;-80
2022/10/19 09:16:05;;;;;;;0.75;0.60;;;;;;;13.39;82.28;101716.92;1673450;85;21307;-80
2022/10/19 09:18:50;;;;;;;0.82;0.70;;;;;;;13.32;82.26;101715.69;1613382;86;21050;-80
2022/10/19 09:21:46;;;;;;;4.70;1.02;;;;;;;13.24;82.21;101719.66;1631970;87;21551;-80
2022/10/19 09:24:48;;;;;;;3.30;0.82;;;;;;;13.19;82.27;101719.70;1657063;85;21139;-80
2022/10/19 09:27:37;;;;;;;2.62;1.00;;;;;;;13.08;82.14;101729.28;1662679;84;21084;-80
2022/10/19 09:30:23;;;;;;;1.15;0.82;;;;;;;12.99;82.15;101730.69;1627263;87;21558;-80
2022/10/19 09:33:20;;;;;;;1.62;0.80;;;;;;;12.92;82.18;101745.89;1626758;87;21113;-80
2022/10/19 09:36:07;;;;;;;1.45;0.95;;;;;;;12.88;82.19;101753.27;1624949;87;21072;-80
2022/10/19 09:38:51;;;;;;;3.75;0.88;;;;;;;12.80;82.02;101753.33;1656785;85;21080;-81
2022/10/19 09:41:44;;;;;;;0.95;0.62;;;;;;;12.76;81.98;101750.33;1656862;85;21141;-81
2022/10/19 09:44:30;;;;;;;0.68;0.60;;;;;;;12.80;82.06;101756.36;1671069;84;21067;-80
2022/10/19 09:47:37;;;;;;;0.93;0.73;;;;;;;12.82;81.97;101762.41;1663494;84;21052;-80
2022/10/19 09:50:29;;;;;;;3.27;0.82;;;;;;;12.88;82.01;101758.47;1664112;85;21051;-80
2022/10/19 09:53:20;;;;;;;0.72;0.55;;;;;;;12.97;81.96;101771.38;1671426;85;21614;-80
2022/10/19 09:56:08;;;;;;;2.98;0.60;;;;;;;13.03;81.85;101769.14;1668676;85;21064;-80
2022/10/19 09:58:56;;;;;;;1.75;0.42;;;;;;;13.07;81.86;101767.81;1654634;83;21110;-80
2022/10/19 10:01:42;;;;;;;7.20;0.50;;;;;;;13.07;81.78;101777.34;1680356;83;21679;-80
2022/10/19 10:04:27;;;;;;;1.32;0.85;;;;;;;13.15;81.88;101780.73;1680519;83;21064;-80
2022/10/19 10:07:17;;;;;;;3.08;0.40;;;;;;;13.27;81.76;101787.61;1678628;83;21096;-80
2022/10/19 10:10:10;;;;;;;1.90;0.50;;;;;;;13.34;81.68;101784.94;1676703;84;21043;-80
2022/10/19 10:12:58;;;;;;;1.95;0.78;;;;;;;13.36;81.59;101788.83;1678881;84;21129;-80
2022/10/19 10:15:48;;;;;;;0.95;0.50;;;;;;;13.39;81.61;101791.40;1675309;84;21084;-80
2022/10/19 10:18:38;;;;;;;2.02;0.40;;;;;;;13.40;81.56;101793.13;1676404;83;21095;-80
2022/10/19 10:21:33;;;;;;;1.07;0.57;;;;;;;13.42;81.51;101801.33;1674888;85;21056;-80
2022/10/19 10:24:21;;;;;;;1.47;0.40;;;;;;;13.37;81.40;101801.80;1674388;84;21071;-80
2022/10/19 10:27:11;;;;;;;4.05;0.57;;;;;;;13.35;81.35;101797.50;1668460;84;21045;-80
2022/10/19 10:29:56;;;;;;;1.30;0.68;;;;;;;13.31;81.31;101799.69;1658251;82;21054;-80
2022/10/19 10:32:51;;;;;;;1.10;0.53;;;;;;;13.27;81.33;101803.19;1645279;85;21132;-80
2022/10/19 10:35:37;;;;;;;4.20;0.50;;;;;;;13.23;81.25;101807.11;1649911;85;21548;-80
2022/10/19 10:38:27;;;;;;;0.82;0.40;;;;;;;13.20;81.14;101805.83;1649549;85;21061;-80
2022/10/19 10:41:19;;;;;;;2.42;0.60;;;;;;;13.28;81.24;101807.51;1649550;85;21029;-80
2022/10/19 10:44:09;;;;;;;14.63;4.72;;;;;;;13.28;81.01;101804.91;1651467;84;21144;-80
2022/10/19 10:47:00;;;;;;;2.95;2.33;;;;;;;13.30;81.02;101805.33;1648970;85;21068;-80
2022/10/19 10:49:59;;;;;;;1.42;0.70;;;;;;;13.36;80.97;101807.88;1653016;85;20890;-80
2022/10/19 10:52:56;;;;;;;0.40;0.40;;;;;;;13.44;80.97;101809.11;1652143;85;21085;-80
2022/10/19 10:55:44;;;;;;;2.42;0.30;;;;;;;13.45;80.71;101806.94;1635029;85;26988;-80
2022/10/19 10:58:53;;;;;;;4.58;0.70;;;;;;;13.37;80.59;101805.70;1636067;86;21124;-80
2022/10/19 11:02:04;;;;;;;1.35;0.55;;;;;;;13.32;80.67;101807.47;1650475;85;21128;-80
2022/10/19 11:04:54;;;;;;;1.65;0.50;;;;;;;13.21;80.53;101811.45;1650169;85;21008;-80
2022/10/19 11:07:44;;;;;;;2.45;0.53;;;;;;;13.11;80.48;101806.30;1651178;85;21628;-80
2022/10/19 11:10:51;;;;;;;3.08;0.50;;;;;;;13.04;80.45;101808.52;1650843;85;21131;-80
2022/10/19 11:13:58;;;;;;;1.32;0.50;;;;;;;12.98;80.40;101799.06;1644031;86;39140;-80
2022/10/19 11:16:47;;;;;;;0.57;0.28;;;;;;;13.04;80.53;101806.78;1647510;86;21105;-80
2022/10/19 11:19:40;;;;;;;1.57;0.50;;;;;;;13.19;80.53;101804.11;1648767;85;22229;-80
2022/10/19 11:22:36;;;;;;;1.42;0.40;;;;;;;13.28;80.28;101812.70;1649528;84;21095;-80
2022/10/19 11:25:48;;;;;;;5.72;0.35;;;;;;;13.28;80.19;101804.48;1648016;85;21081;-79
2022/10/19 11:29:02;;;;;;;1.75;0.33;;;;;;;13.30;80.09;101801.86;1633454;86;21065;-80
2022/10/19 11:31:51;;;;;;;1.25;0.50;;;;;;;13.31;80.05;101796.66;1603382;89;21618;-80
2022/10/19 11:34:48;;;;;;;0.85;0.60;;;;;;;13.31;79.96;101800.55;1633430;87;22399;-80
2022/10/19 11:38:03;;;;;;;0.62;0.30;;;;;;;13.19;79.71;101808.44;1629193;85;21107;-80
2022/10/19 11:41:28;;;;;;;1.82;0.25;;;;;;;13.03;79.59;101807.66;1637287;85;21078;-80
2022/10/19 11:44:45;;;;;;;1.15;0.28;;;;;;;12.94;79.58;101814.24;1628559;86;21094;-80
2022/10/19 11:48:13;;;;;;;2.12;0.45;;;;;;;12.85;79.50;101803.91;1632799;85;21035;-80
2022/10/19 11:51:07;;;;;;;1.75;0.30;;;;;;;12.78;79.41;101804.38;1629807;86;21619;-80
2022/10/19 11:54:15;;;;;;;3.12;0.30;;;;;;;12.78;79.32;101804.82;1627264;86;21135;-80
2022/10/19 11:57:23;;;;;;;0.30;0.20;;;;;;;12.71;79.21;101805.73;1603495;87;21043;-80
2022/10/19 12:00:13;;;;;;;0.40;0.20;;;;;;;12.68;79.11;101812.23;1629371;87;20925;-80
2022/10/19 12:03:21;;;;;;;0.75;0.20;;;;;;;12.69;79.04;101809.63;1636995;87;21073;-80
2022/10/19 12:06:17;;;;;;;0.95;0.35;;;;;;;12.72;78.99;101808.75;1631275;87;21150;-80
2022/10/19 12:09:18;;;;;;;0.95;0.30;;;;;;;12.77;78.75;101805.69;1630308;86;21516;-80
2022/10/19 12:12:18;;;;;;;3.22;0.42;;;;;;;12.84;78.66;101814.73;1630966;86;21509;-80
2022/10/19 12:15:20;;;;;;;1.20;0.40;;;;;;;12.95;78.56;101808.61;1628867;87;21034;-80
2022/10/19 12:18:27;;;;;;;1.15;0.20;;;;;;;13.01;78.47;101800.31;1624883;86;21001;-80
2022/10/19 12:21:32;;;;;;;1.30;0.40;;;;;;;13.03;78.26;101803.76;1634315;85;21089;-80
2022/10/19 12:24:22;;;;;;;0.88;0.30;;;;;;;13.06;78.19;101814.13;1634979;87;21128;-80
2022/10/19 12:27:14;;;;;;;0.95;0.33;;;;;;;13.04;78.08;101805.48;1629820;87;21500;-80
2022/10/19 12:30:08;;;;;;;0.17;0.10;;;;;;;13.02;77.87;101807.23;1606715;87;21065;-80
2022/10/19 12:33:04;;;;;;;0.40;0.10;;;;;;;12.98;77.86;101808.16;1613996;86;21066;-80
2022/10/19 12:36:27;;;;;;;1.67;0.47;;;;;;;12.96;77.58;101803.84;1609602;88;21769;-80
2022/10/19 12:39:22;;;;;;;1.50;0.20;;;;;;;12.92;77.48;101797.81;1640044;86;21057;-80
2022/10/19 12:42:40;;;;;;;0.20;0.20;;;;;;;12.93;77.37;101804.30;1640133;86;21085;-80
2022/10/19 12:45:35;;;;;;;0.65;0.20;;;;;;;12.92;77.25;101804.30;1647569;86;21144;-80
2022/10/19 12:48:23;;;;;;;0.88;0.25;;;;;;;12.91;77.17;101803.88;1643335;86;21136;-80
2022/10/19 12:51:12;;;;;;;0.37;0.10;;;;;;;12.88;77.08;101799.56;1639389;86;21073;-80
2022/10/19 12:54:08;;;;;;;0.20;0.10;;;;;;;12.88;76.92;101798.70;1647070;85;21116;-80
2022/10/19 12:56:56;;;;;;;0.72;0.35;;;;;;;12.88;76.84;101798.70;1643238;85;21663;-80
2022/10/19 12:59:42;;;;;;;1.12;0.40;;;;;;;12.88;76.84;101796.97;1648271;84;21116;-80
2022/10/19 13:02:38;;;;;;;0.37;0.37;;;;;;;12.88;76.56;101802.59;1636350;86;21121;-80
2022/10/19 13:05:27;;;;;;;1.45;0.45;;;;;;;12.88;76.50;101798.70;1648072;86;20981;-80
2022/10/19 13:08:17;;;;;;;1.22;0.37;;;;;;;12.91;76.45;101802.58;1645359;85;21096;-80
2022/10/19 13:11:16;;;;;;;0.80;0.30;;;;;;;12.97;76.30;101799.94;1638024;86;21157;-81